createdAt,value
2022-09-28T00:01:07.914Z,18.55
2022-09-28T00:03:35.262Z,12.30
2022-09-28T00:06:11.305Z,10.57
2022-09-28T00:08:38.467Z,10.63
2022-09-28T00:11:12.323Z,7.63
2022-09-28T00:13:40.418Z,9.98
2022-09-28T00:16:11.881Z,8.93
2022-09-28T00:18:38.740Z,8.82
2022-09-28T00:21:10.220Z,6.55
2022-09-28T00:24:00.540Z,6.43
2022-09-28T00:26:28.922Z,6.80
2022-09-28T00:29:00.627Z,6.95
2022-09-28T00:31:32.779Z,7.72
2022-09-28T00:34:01.952Z,6.40
2022-09-28T00:36:32.266Z,6.30
2022-09-28T00:38:59.995Z,6.03
2022-09-28T00:41:29.681Z,5.82
2022-09-28T00:44:24.925Z,5.72
2022-09-28T00:47:05.042Z,5.05
2022-09-28T00:49:50.890Z,8.02
2022-09-28T00:52:27.345Z,6.22
2022-09-28T00:54:56.300Z,6.28
2022-09-28T00:57:24.134Z,7.10
2022-09-28T00:59:52.400Z,6.93
2022-09-28T01:02:21.453Z,7.15
2022-09-28T01:04:50.250Z,7.03
2022-09-28T01:07:18.803Z,7.68
2022-09-28T01:09:46.521Z,7.03
2022-09-28T01:12:13.385Z,6.07
2022-09-28T01:14:41.349Z,5.72
2022-09-28T01:17:15.726Z,6.00
2022-09-28T01:23:06.893Z,7.20
2022-09-28T01:25:41.225Z,7.28
2022-09-28T01:28:12.248Z,9.20
2022-09-28T01:31:09.273Z,7.82
2022-09-28T01:33:48.515Z,8.25
2022-09-28T01:36:28.262Z,7.90
2022-09-28T01:39:11.022Z,6.40
2022-09-28T01:41:40.500Z,5.90
2022-09-28T01:44:13.003Z,8.93
2022-09-28T01:46:49.294Z,7.90
2022-09-28T01:49:31.354Z,7.30
2022-09-28T01:52:01.050Z,8.02
2022-09-28T01:54:37.227Z,8.60
2022-09-28T01:57:22.811Z,8.30
2022-09-28T01:59:57.661Z,10.10
2022-09-28T02:02:29.678Z,10.02
2022-09-28T02:05:06.671Z,9.90
2022-09-28T02:07:51.482Z,8.18
2022-09-28T02:12:54.044Z,8.50
2022-09-28T02:15:28.031Z,8.55
2022-09-28T02:17:55.096Z,7.00
2022-09-28T02:20:23.129Z,7.43
2022-09-28T02:22:53.458Z,9.98
2022-09-28T02:25:28.459Z,8.35
2022-09-28T02:28:04.396Z,7.47
2022-09-28T02:30:32.905Z,8.32
2022-09-28T02:33:23.305Z,8.85
2022-09-28T02:35:50.552Z,8.48
2022-09-28T02:38:17.721Z,8.68
2022-09-28T02:40:51.425Z,6.68
2022-09-28T02:43:32.182Z,6.68
2022-09-28T02:46:29.792Z,6.13
2022-09-28T02:49:21.838Z,8.27
2022-09-28T02:52:26.497Z,7.70
2022-09-28T02:55:07.926Z,5.25
2022-09-28T02:57:52.399Z,8.32
2022-09-28T03:00:22.936Z,8.07
2022-09-28T03:03:13.036Z,8.05
2022-09-28T03:05:45.861Z,10.75
2022-09-28T03:08:25.554Z,8.07
2022-09-28T03:10:58.351Z,12.95
2022-09-28T03:13:26.952Z,8.70
2022-09-28T03:16:13.415Z,9.65
2022-09-28T03:18:41.519Z,7.57
2022-09-28T03:21:11.484Z,6.30
2022-09-28T03:23:39.173Z,11.05
2022-09-28T03:26:07.816Z,7.50
2022-09-28T03:28:36.316Z,6.72
2022-09-28T03:31:03.704Z,8.23
2022-09-28T03:33:30.801Z,7.65
2022-09-28T03:35:57.694Z,8.45
2022-09-28T03:38:24.586Z,8.38
2022-09-28T03:40:58.075Z,9.40
2022-09-28T03:43:25.829Z,11.23
2022-09-28T03:45:56.930Z,9.57
2022-09-28T03:48:28.802Z,11.20
2022-09-28T03:51:03.659Z,10.05
2022-09-28T03:53:30.772Z,14.60
2022-09-28T03:56:03.502Z,11.82
2022-09-28T03:58:30.488Z,14.07
2022-09-28T04:01:03.245Z,13.70
2022-09-28T04:03:30.353Z,18.08
2022-09-28T04:05:57.480Z,12.10
2022-09-28T04:08:24.445Z,15.35
2022-09-28T04:10:51.506Z,15.38
2022-09-28T04:13:18.320Z,14.73
2022-09-28T04:15:52.889Z,12.98
2022-09-28T04:18:20.053Z,15.98
2022-09-28T04:20:48.221Z,18.48
2022-09-28T04:23:17.965Z,19.67
2022-09-28T04:25:47.907Z,17.65
2022-09-28T04:28:34.002Z,18.30
2022-09-28T04:31:00.799Z,15.98
2022-09-28T04:33:27.618Z,20.73
2022-09-28T04:35:54.452Z,14.98
2022-09-28T04:38:41.594Z,17.95
2022-09-28T04:41:08.123Z,16.67
2022-09-28T04:43:35.095Z,21.30
2022-09-28T04:46:02.752Z,23.55
2022-09-28T04:48:29.790Z,22.92
2022-09-28T04:50:58.414Z,22.70
2022-09-28T04:53:26.410Z,20.70
2022-09-28T04:56:06.858Z,19.65
2022-09-28T04:58:35.764Z,17.70
2022-09-28T05:01:06.046Z,16.48
2022-09-28T05:03:34.130Z,18.60
2022-09-28T05:06:01.653Z,19.70
2022-09-28T05:08:28.954Z,19.67
2022-09-28T05:11:06.566Z,18.95
2022-09-28T05:13:35.899Z,12.88
2022-09-28T05:16:05.386Z,18.85
2022-09-28T05:18:32.856Z,23.15
2022-09-28T05:20:59.885Z,20.55
2022-09-28T05:23:26.751Z,24.67
2022-09-28T05:25:53.591Z,20.30
2022-09-28T05:28:25.351Z,19.08
2022-09-28T05:30:52.364Z,16.10
2022-09-28T05:33:19.294Z,20.45
2022-09-28T05:35:49.739Z,19.27
2022-09-28T05:38:17.924Z,14.55
2022-09-28T05:40:44.997Z,17.13
2022-09-28T05:43:11.836Z,18.38
2022-09-28T05:45:38.757Z,16.45
2022-09-28T05:48:05.612Z,21.35
2022-09-28T05:50:32.727Z,25.10
2022-09-28T05:53:08.358Z,15.45
2022-09-28T05:55:37.801Z,12.73
2022-09-28T05:58:06.679Z,15.82
2022-09-28T06:00:34.815Z,18.27
2022-09-28T06:03:08.700Z,18.52
2022-09-28T06:05:36.393Z,18.52
2022-09-28T06:08:05.354Z,15.52
2022-09-28T06:10:33.508Z,18.30
2022-09-28T06:13:00.890Z,16.60
2022-09-28T06:15:30.543Z,13.38
2022-09-28T06:18:08.061Z,14.75
2022-09-28T06:20:37.508Z,14.10
2022-09-28T06:23:04.787Z,13.55
2022-09-28T06:25:32.425Z,13.18
2022-09-28T06:28:00.443Z,15.73
2022-09-28T06:30:28.854Z,11.30
2022-09-28T06:32:57.237Z,12.98
2022-09-28T06:35:26.417Z,16.40
2022-09-28T06:37:53.819Z,15.77
2022-09-28T06:40:21.439Z,11.85
2022-09-28T06:43:10.553Z,13.32
2022-09-28T06:45:38.547Z,13.20
2022-09-28T06:48:06.826Z,15.18
2022-09-28T06:50:37.527Z,14.98
2022-09-28T06:53:06.913Z,16.45
2022-09-28T06:55:33.756Z,15.48
2022-09-28T06:58:03.233Z,13.23
2022-09-28T07:00:34.086Z,12.00
2022-09-28T07:03:03.106Z,13.57
2022-09-28T07:05:30.649Z,13.38
2022-09-28T07:07:57.962Z,13.45
2022-09-28T07:10:27.833Z,15.00
2022-09-28T07:12:56.298Z,13.38
2022-09-28T07:15:24.377Z,13.85
2022-09-28T07:18:02.820Z,10.70
2022-09-28T07:20:31.007Z,14.18
2022-09-28T07:23:14.547Z,13.35
2022-09-28T07:25:45.677Z,20.90
2022-09-28T07:28:12.627Z,19.17
2022-09-28T07:30:39.728Z,16.63
2022-09-28T07:33:08.160Z,14.73
2022-09-28T07:35:34.988Z,11.85
2022-09-28T07:38:07.117Z,14.13
2022-09-28T07:40:54.078Z,13.02
2022-09-28T07:43:22.105Z,14.48
2022-09-28T07:45:54.444Z,14.73
2022-09-28T07:48:22.315Z,15.90
2022-09-28T07:50:51.885Z,15.68
2022-09-28T07:53:20.269Z,14.52
2022-09-28T07:56:05.812Z,16.13
2022-09-28T07:58:33.933Z,14.48
2022-09-28T08:01:08.590Z,17.13
2022-09-28T08:03:36.522Z,14.13
2022-09-28T08:06:07.168Z,12.65
2022-09-28T08:08:35.154Z,15.55
2022-09-28T08:11:02.510Z,12.55
2022-09-28T08:13:31.183Z,11.38
2022-09-28T08:16:02.124Z,12.50
2022-09-28T08:18:29.826Z,11.13
2022-09-28T08:21:15.342Z,10.35
2022-09-28T08:23:42.243Z,11.05
2022-09-28T08:26:13.315Z,12.63
2022-09-28T08:28:43.366Z,11.57
2022-09-28T08:31:10.298Z,13.10
2022-09-28T08:33:37.214Z,11.48
2022-09-28T08:36:05.217Z,11.27
2022-09-28T08:38:32.909Z,10.00
2022-09-28T08:41:32.349Z,10.07
2022-09-28T08:44:25.076Z,14.05
2022-09-28T08:47:00.124Z,11.02
2022-09-28T08:49:39.135Z,12.65
2022-09-28T08:52:28.195Z,9.52
2022-09-28T08:55:14.057Z,8.90
2022-09-28T08:58:05.149Z,10.20
2022-09-28T09:00:52.420Z,9.93
2022-09-28T09:03:35.883Z,9.80
2022-09-28T09:06:08.806Z,8.60
2022-09-28T09:08:50.196Z,9.70
2022-09-28T09:11:48.891Z,10.32
2022-09-28T09:14:28.021Z,10.10
2022-09-28T09:17:01.092Z,10.20
2022-09-28T09:19:36.259Z,11.00
2022-09-28T09:22:10.138Z,10.95
2022-09-28T09:25:03.244Z,11.02
2022-09-28T09:27:51.214Z,11.63
2022-09-28T09:30:22.044Z,10.20
2022-09-28T09:33:36.201Z,11.43
2022-09-28T09:36:25.001Z,10.75
2022-09-28T09:39:21.641Z,12.20
2022-09-28T09:42:15.500Z,12.43
2022-09-28T09:45:00.355Z,12.40
2022-09-28T09:47:39.380Z,13.30
2022-09-28T09:50:30.693Z,13.65
2022-09-28T09:53:04.922Z,15.40
2022-09-28T09:55:40.284Z,13.20
2022-09-28T09:58:24.252Z,14.60
2022-09-28T10:00:54.417Z,11.80
2022-09-28T10:03:28.205Z,10.55
2022-09-28T10:06:19.730Z,11.88
2022-09-28T10:08:52.347Z,11.48
2022-09-28T10:11:26.195Z,13.27
2022-09-28T10:13:53.017Z,13.00
2022-09-28T10:16:20.076Z,13.15
2022-09-28T10:18:49.647Z,9.88
2022-09-28T10:21:20.205Z,13.65
2022-09-28T10:23:57.289Z,14.77
2022-09-28T10:26:41.813Z,12.85
2022-09-28T10:29:20.012Z,9.60
2022-09-28T10:31:52.065Z,8.98
2022-09-28T10:34:26.358Z,9.68
2022-09-28T10:36:58.468Z,9.02
2022-09-28T10:39:31.811Z,9.88
2022-09-28T10:42:06.239Z,9.82
2022-09-28T10:47:08.891Z,12.10
2022-09-28T10:52:45.266Z,11.73
2022-09-28T10:55:33.054Z,8.48
2022-09-28T10:58:00.754Z,7.72
2022-09-28T11:00:42.005Z,9.77
2022-09-28T11:03:27.946Z,15.05
2022-09-28T11:05:57.939Z,10.48
2022-09-28T11:08:39.618Z,9.68
2022-09-28T11:11:14.717Z,13.20
2022-09-28T11:13:50.194Z,9.98
2022-09-28T11:16:26.697Z,7.60
2022-09-28T11:18:53.679Z,10.73
2022-09-28T11:21:42.965Z,9.68
2022-09-28T11:24:19.028Z,8.18
2022-09-28T11:26:49.652Z,8.63
2022-09-28T11:29:25.751Z,7.13
2022-09-28T11:31:53.128Z,8.57
2022-09-28T11:34:41.601Z,6.50
2022-09-28T11:37:34.362Z,7.50
2022-09-28T11:40:46.051Z,9.93
2022-09-28T11:43:37.255Z,7.57
2022-09-28T11:46:27.596Z,6.53
2022-09-28T11:49:07.154Z,6.10
2022-09-28T11:51:40.246Z,7.43
2022-09-28T11:54:44.372Z,10.15
2022-09-28T11:57:24.135Z,5.90
2022-09-28T11:59:57.822Z,7.95
2022-09-28T12:02:32.074Z,7.90
2022-09-28T12:07:50.274Z,11.30
2022-09-28T12:10:32.354Z,5.45
2022-09-28T12:13:11.966Z,7.28
2022-09-28T12:16:16.831Z,4.70
2022-09-28T12:18:55.339Z,4.65
2022-09-28T12:21:25.496Z,5.25
2022-09-28T12:23:57.048Z,3.88
2022-09-28T12:26:42.216Z,7.45
2022-09-28T12:29:17.254Z,4.47
2022-09-28T12:31:50.240Z,4.90
2022-09-28T12:34:17.063Z,3.92
2022-09-28T12:37:08.093Z,3.95
2022-09-28T12:39:57.896Z,2.92
2022-09-28T12:42:35.908Z,5.45
2022-09-28T12:45:18.892Z,3.17
2022-09-28T12:48:01.048Z,3.40
2022-09-28T12:50:38.779Z,3.55
2022-09-28T12:53:26.140Z,2.83
2022-09-28T12:56:04.668Z,6.05
2022-09-28T12:58:38.710Z,2.80
2022-09-28T13:01:15.166Z,6.13
2022-09-28T13:04:00.703Z,3.00
2022-09-28T13:06:54.962Z,2.85
2022-09-28T13:09:27.579Z,4.63
2022-09-28T13:12:19.242Z,5.13
2022-09-28T13:15:00.760Z,5.80
2022-09-28T13:17:49.763Z,3.72
2022-09-28T13:20:23.385Z,2.40
2022-09-28T13:23:03.153Z,3.75
2022-09-28T13:25:34.318Z,2.40
2022-09-28T13:28:04.216Z,3.58
2022-09-28T13:30:33.460Z,3.55
2022-09-28T13:33:03.389Z,4.47
2022-09-28T13:35:31.430Z,5.53
2022-09-28T13:38:21.009Z,3.10
2022-09-28T13:41:06.465Z,5.00
2022-09-28T13:43:35.413Z,8.63
2022-09-28T13:46:12.646Z,3.45
2022-09-28T13:49:08.873Z,2.90
2022-09-28T13:51:58.859Z,3.70
2022-09-28T13:54:50.390Z,2.47
2022-09-28T13:57:19.879Z,3.13
2022-09-28T14:00:21.944Z,2.33
2022-09-28T14:03:06.309Z,3.33
2022-09-28T14:05:52.664Z,4.47
2022-09-28T14:09:06.854Z,3.70
2022-09-28T14:11:36.919Z,3.22
2022-09-28T14:14:11.947Z,3.38
2022-09-28T14:16:40.483Z,4.28
2022-09-28T14:19:24.755Z,4.25
2022-09-28T14:22:22.142Z,3.42
2022-09-28T14:25:23.757Z,4.20
2022-09-28T14:28:19.469Z,2.30
2022-09-28T14:30:50.304Z,3.88
2022-09-28T14:33:30.614Z,4.63
2022-09-28T14:36:05.264Z,4.50
2022-09-28T14:39:08.652Z,4.07
2022-09-28T14:41:39.951Z,3.10
2022-09-28T14:44:08.667Z,2.92
2022-09-28T14:46:36.995Z,4.85
2022-09-28T14:49:26.792Z,3.65
2022-09-28T14:51:53.633Z,4.47
2022-09-28T14:54:22.975Z,3.17
2022-09-28T14:56:57.174Z,5.57
2022-09-28T14:59:36.114Z,4.38
2022-09-28T15:02:13.486Z,3.85
2022-09-28T15:05:07.597Z,7.45
2022-09-28T15:07:52.337Z,5.57
2022-09-28T15:12:57.254Z,4.53
2022-09-28T15:15:28.966Z,4.22
2022-09-28T15:18:18.848Z,5.88
2022-09-28T15:20:48.101Z,5.30
2022-09-28T15:23:35.487Z,4.85
2022-09-28T15:26:06.730Z,7.43
2022-09-28T15:28:35.832Z,4.00
2022-09-28T15:31:05.151Z,3.33
2022-09-28T15:33:53.690Z,3.75
2022-09-28T15:36:26.462Z,4.00
2022-09-28T15:39:01.325Z,6.53
2022-09-28T15:41:29.253Z,3.60
2022-09-28T15:44:12.540Z,4.80
2022-09-28T15:46:45.379Z,4.72
2022-09-28T15:49:31.580Z,3.88
2022-09-28T15:52:03.101Z,4.72
2022-09-28T15:54:38.953Z,3.85
2022-09-28T15:57:05.902Z,3.38
2022-09-28T15:59:34.794Z,5.47
2022-09-28T16:02:16.859Z,3.67
2022-09-28T16:04:56.024Z,6.53
2022-09-28T16:07:30.073Z,3.20
2022-09-28T16:10:05.455Z,9.77
2022-09-28T16:12:38.464Z,5.65
2022-09-28T16:15:23.703Z,4.20
2022-09-28T16:17:52.153Z,8.43
2022-09-28T16:20:40.529Z,4.75
2022-09-28T16:23:18.493Z,6.03
2022-09-28T16:25:58.852Z,5.20
2022-09-28T16:28:48.985Z,5.50
2022-09-28T16:31:27.411Z,5.82
2022-09-28T16:34:01.349Z,5.30
2022-09-28T16:36:38.615Z,5.00
2022-09-28T16:39:05.514Z,3.47
2022-09-28T16:41:32.380Z,4.60
2022-09-28T16:44:02.266Z,6.93
2022-09-28T16:46:37.255Z,19.60
2022-09-28T16:49:06.228Z,5.45
2022-09-28T16:51:33.789Z,8.45
2022-09-28T16:54:32.774Z,4.80
2022-09-28T16:57:00.517Z,5.93
2022-09-28T16:59:28.419Z,6.57
2022-09-28T17:01:56.841Z,6.13
2022-09-28T17:04:25.171Z,5.45
2022-09-28T17:06:54.401Z,5.78
2022-09-28T17:09:24.315Z,7.75
2022-09-28T17:11:56.203Z,5.95
2022-09-28T17:14:24.017Z,8.77
2022-09-28T17:17:13.811Z,8.23
2022-09-28T17:19:41.390Z,6.88
2022-09-28T17:22:11.457Z,7.95
2022-09-28T17:24:38.350Z,7.00
2022-09-28T17:27:06.983Z,8.40
2022-09-28T17:29:33.827Z,9.98
2022-09-28T17:32:00.699Z,10.48
2022-09-28T17:34:27.622Z,6.32
2022-09-28T17:36:54.810Z,6.68
2022-09-28T17:39:21.781Z,8.02
2022-09-28T17:41:48.610Z,7.80
2022-09-28T17:44:16.411Z,6.80
2022-09-28T17:46:49.718Z,8.50
2022-09-28T17:49:17.244Z,7.90
2022-09-28T17:51:44.131Z,11.38
2022-09-28T17:54:13.038Z,10.10
2022-09-28T17:56:39.907Z,9.20
2022-09-28T17:59:10.714Z,8.25
2022-09-28T18:01:40.218Z,10.35
2022-09-28T18:04:09.009Z,6.88
2022-09-28T18:06:37.387Z,12.57
2022-09-28T18:09:05.197Z,7.88
2022-09-28T18:11:33.328Z,9.38
2022-09-28T18:14:00.260Z,10.40
2022-09-28T18:16:28.989Z,10.73
2022-09-28T18:18:56.453Z,10.93
2022-09-28T18:21:23.413Z,11.65
2022-09-28T18:23:50.589Z,10.02
2022-09-28T18:26:19.667Z,11.00
2022-09-28T18:28:47.162Z,11.23
2022-09-28T18:31:15.908Z,9.80
2022-09-28T18:33:43.443Z,9.25
2022-09-28T18:36:10.663Z,10.18
2022-09-28T18:38:38.435Z,9.80
2022-09-28T18:41:17.181Z,9.55
2022-09-28T18:43:49.305Z,11.27
2022-09-28T18:46:20.364Z,12.10
2022-09-28T18:48:47.892Z,9.48
2022-09-28T18:51:15.140Z,11.55
2022-09-28T18:53:42.302Z,11.98
2022-09-28T18:56:11.811Z,17.42
2022-09-28T18:58:42.121Z,15.57
2022-09-28T19:04:04.580Z,18.67
2022-09-28T19:06:32.792Z,32.58
2022-09-28T19:09:00.000Z,24.15
2022-09-28T19:11:27.365Z,23.48
2022-09-28T19:13:55.509Z,19.95
2022-09-28T19:16:25.297Z,18.75
2022-09-28T19:18:53.791Z,21.17
2022-09-28T19:21:21.062Z,16.08
2022-09-28T19:23:49.880Z,19.08
2022-09-28T19:26:25.459Z,17.60
2022-09-28T19:28:52.615Z,16.50
2022-09-28T19:31:20.142Z,19.23
2022-09-28T19:33:47.306Z,22.42
2022-09-28T19:36:17.857Z,26.15
2022-09-28T19:38:45.572Z,19.60
2022-09-28T19:41:39.422Z,19.17
2022-09-28T19:44:29.776Z,21.77
2022-09-28T19:47:06.885Z,22.02
2022-09-28T19:49:38.526Z,20.30
2022-09-28T19:52:17.671Z,16.83
2022-09-28T19:54:57.054Z,21.13
2022-09-28T19:57:29.943Z,15.25
2022-09-28T20:00:02.149Z,18.80
2022-09-28T20:02:29.633Z,20.23
2022-09-28T20:04:56.501Z,18.13
2022-09-28T20:07:23.380Z,19.42
2022-09-28T20:09:50.194Z,16.63
2022-09-28T20:12:17.228Z,15.68
2022-09-28T20:14:44.020Z,18.40
2022-09-28T20:17:10.874Z,19.02
2022-09-28T20:19:38.196Z,20.77
2022-09-28T20:22:05.204Z,20.73
2022-09-28T20:24:32.291Z,19.38
2022-09-28T20:26:59.448Z,19.50
2022-09-28T20:29:26.808Z,21.77
2022-09-28T20:31:53.680Z,18.42
2022-09-28T20:34:20.605Z,18.48
2022-09-28T20:36:48.345Z,16.95
2022-09-28T20:39:15.326Z,20.13
2022-09-28T20:41:42.522Z,21.13
2022-09-28T20:44:09.994Z,22.48
2022-09-28T20:46:38.193Z,21.33
2022-09-28T20:49:05.601Z,22.42
2022-09-28T20:51:32.809Z,23.08
2022-09-28T20:54:00.212Z,19.13
2022-09-28T20:56:38.852Z,22.67
2022-09-28T20:59:11.732Z,22.30
2022-09-28T21:01:39.225Z,19.80
2022-09-28T21:04:07.865Z,26.92
2022-09-28T21:06:39.886Z,21.40
2022-09-28T21:09:08.446Z,26.45
2022-09-28T21:11:36.059Z,22.17
2022-09-28T21:14:05.843Z,21.75
2022-09-28T21:16:34.512Z,24.48
2022-09-28T21:19:01.553Z,26.70
2022-09-28T21:21:28.419Z,25.67
2022-09-28T21:23:56.906Z,26.27
2022-09-28T21:26:26.072Z,28.63
2022-09-28T21:28:58.200Z,27.85
2022-09-28T21:31:29.062Z,31.15
2022-09-28T21:33:57.127Z,30.85
2022-09-28T21:36:24.556Z,33.80
2022-09-28T21:38:51.512Z,25.70
2022-09-28T21:41:18.345Z,30.95
2022-09-28T21:43:45.959Z,33.28
2022-09-28T21:46:12.989Z,28.60
2022-09-28T21:48:39.983Z,30.00
2022-09-28T21:51:10.260Z,25.85
2022-09-28T21:53:38.314Z,25.13
2022-09-28T21:56:07.568Z,31.83
2022-09-28T21:58:35.657Z,32.83
2022-09-28T22:01:03.922Z,26.42
2022-09-28T22:03:32.192Z,24.85
2022-09-28T22:05:59.420Z,31.42
2022-09-28T22:08:26.537Z,27.77
2022-09-28T22:11:01.563Z,26.23
2022-09-28T22:13:29.487Z,27.75
2022-09-28T22:15:59.959Z,29.85
2022-09-28T22:18:28.310Z,31.02
2022-09-28T22:20:59.552Z,30.80
2022-09-28T22:23:27.778Z,26.48
2022-09-28T22:26:09.775Z,32.90
2022-09-28T22:28:37.269Z,30.40
2022-09-28T22:31:04.421Z,32.10
2022-09-28T22:33:31.302Z,33.45
2022-09-28T22:35:58.100Z,32.92
2022-09-28T22:38:25.259Z,32.83
2022-09-28T22:40:55.056Z,38.20
2022-09-28T22:43:26.646Z,30.73
2022-09-28T22:46:04.093Z,33.88
2022-09-28T22:48:31.522Z,33.25
2022-09-28T22:50:58.915Z,31.20
2022-09-28T22:53:25.761Z,30.60
2022-09-28T22:55:52.648Z,40.10
2022-09-28T22:58:19.527Z,35.95
2022-09-28T23:00:46.411Z,34.13
2022-09-28T23:03:13.327Z,39.92
2022-09-28T23:05:40.225Z,37.35
2022-09-28T23:08:07.212Z,34.00
2022-09-28T23:10:34.146Z,35.50
2022-09-28T23:13:00.956Z,28.63
2022-09-28T23:15:29.050Z,27.25
2022-09-28T23:17:55.991Z,25.30
2022-09-28T23:20:23.756Z,27.33
2022-09-28T23:22:50.949Z,24.42
2022-09-28T23:25:18.868Z,30.98
2022-09-28T23:27:47.108Z,26.80
2022-09-28T23:30:15.922Z,24.85
2022-09-28T23:32:43.127Z,23.98
2022-09-28T23:35:10.872Z,25.25
2022-09-28T23:37:38.053Z,24.25
2022-09-28T23:40:07.984Z,20.55
2022-09-28T23:42:35.563Z,20.58
2022-09-28T23:45:02.478Z,21.45
2022-09-28T23:47:29.308Z,23.73
2022-09-28T23:49:56.112Z,18.92
2022-09-28T23:52:22.974Z,18.98
2022-09-28T23:54:49.796Z,15.60
2022-09-28T23:57:16.725Z,19.17
2022-09-28T23:59:43.518Z,18.15
